TimeCDT,TemperatureF,Dew PointF,Humidity,Sea Level PressureIn,VisibilityMPH,Wind Direction,Wind SpeedMPH,Gust SpeedMPH,PrecipitationIn,Events,Conditions,WindDirDegrees,DateUTC
12:16 AM,60.8,57.2,88,29.56,10.0,ESE,3.5,-,N/A,,Scattered Clouds,110,2013-05-21 05:16:00
12:36 AM,62.6,55.4,77,29.56,10.0,SE,5.8,-,N/A,,Clear,140,2013-05-21 05:36:00
12:55 AM,62.6,55.4,77,29.56,10.0,SSE,4.6,-,N/A,,Clear,160,2013-05-21 05:55:00
1:16 AM,60.8,55.4,82,29.55,10.0,SE,4.6,-,N/A,,Scattered Clouds,140,2013-05-21 06:16:00
1:36 AM,60.8,55.4,82,29.54,10.0,SE,4.6,-,N/A,,Mostly Cloudy,140,2013-05-21 06:36:00
1:55 AM,60.8,55.4,82,29.54,10.0,SE,4.6,-,N/A,,Scattered Clouds,140,2013-05-21 06:55:00
2:15 AM,60.8,55.4,82,29.54,10.0,SE,5.8,-,N/A,,Mostly Cloudy,140,2013-05-21 07:15:00
2:35 AM,60.8,55.4,82,29.54,10.0,SSE,5.8,-,N/A,,Overcast,160,2013-05-21 07:35:00
2:56 AM,60.8,55.4,82,29.54,10.0,SSE,5.8,-,N/A,,Overcast,150,2013-05-21 07:56:00
3:15 AM,60.8,55.4,82,29.53,10.0,SSE,5.8,-,N/A,,Overcast,150,2013-05-21 08:15:00
3:35 AM,60.8,55.4,82,29.53,10.0,SSE,5.8,-,N/A,,Overcast,160,2013-05-21 08:35:00
3:56 AM,60.8,55.4,82,29.52,10.0,SE,5.8,-,N/A,,Overcast,140,2013-05-21 08:56:00
4:15 AM,60.8,55.4,82,29.53,10.0,SSE,4.6,-,N/A,,Scattered Clouds,150,2013-05-21 09:15:00
4:35 AM,60.8,55.4,82,29.53,10.0,SSE,4.6,-,N/A,,Clear,160,2013-05-21 09:35:00
4:56 AM,59.0,55.4,88,29.52,10.0,SSE,4.6,-,N/A,,Mostly Cloudy,150,2013-05-21 09:56:00
5:15 AM,59.0,55.4,88,29.52,10.0,SSE,4.6,-,N/A,,Overcast,150,2013-05-21 10:15:00
5:35 AM,59.0,55.4,88,29.53,10.0,SSE,4.6,-,N/A,,Overcast,160,2013-05-21 10:35:00
5:56 AM,59.0,55.4,88,29.54,10.0,SSE,4.6,-,N/A,,Overcast,160,2013-05-21 10:56:00
6:16 AM,60.8,57.2,88,29.55,10.0,South,4.6,-,N/A,,Overcast,170,2013-05-21 11:16:00
6:35 AM,60.8,57.2,88,29.55,7.0,South,4.6,-,N/A,,Overcast,170,2013-05-21 11:35:00
6:55 AM,60.8,57.2,88,29.56,7.0,South,6.9,-,N/A,,Overcast,180,2013-05-21 11:55:00
7:16 AM,-9999,-9999,N/A,29.56,7.0,SSW,6.9,-,N/A,,Overcast,210,2013-05-21 12:16:00
7:35 AM,60.8,57.2,88,29.56,7.0,SSW,8.1,-,N/A,,Overcast,210,2013-05-21 12:35:00
7:56 AM,60.8,57.2,88,29.56,7.0,SW,5.8,-,N/A,,Mostly Cloudy,220,2013-05-21 12:56:00
8:16 AM,60.8,55.4,82,29.57,10.0,WSW,9.2,-,N/A,,Overcast,240,2013-05-21 13:16:00
8:35 AM,60.8,55.4,82,29.58,10.0,SW,9.2,-,N/A,,Overcast,230,2013-05-21 13:35:00
8:56 AM,60.8,55.4,82,29.59,10.0,WSW,10.4,-,N/A,,Overcast,240,2013-05-21 13:56:00
9:16 AM,60.8,53.6,77,29.59,10.0,WSW,8.1,-,N/A,,Overcast,240,2013-05-21 14:16:00
9:36 AM,60.8,53.6,77,29.59,10.0,WSW,10.4,-,N/A,,Mostly Cloudy,250,2013-05-21 14:36:00
9:55 AM,60.8,53.6,77,29.59,10.0,WSW,9.2,-,N/A,,Overcast,240,2013-05-21 14:55:00
10:16 AM,60.8,53.6,77,29.59,10.0,SW,10.4,17.3,N/A,,Overcast,230,2013-05-21 15:16:00
10:35 AM,62.6,53.6,72,29.60,10.0,SW,12.7,-,N/A,,Overcast,230,2013-05-21 15:35:00
10:56 AM,62.6,53.6,72,29.60,10.0,SW,9.2,-,N/A,,Overcast,220,2013-05-21 15:56:00
11:16 AM,62.6,53.6,72,29.61,10.0,SW,11.5,-,N/A,,Overcast,230,2013-05-21 16:16:00
11:35 AM,62.6,53.6,72,29.61,10.0,SW,11.5,17.3,N/A,,Overcast,230,2013-05-21 16:35:00
11:56 AM,62.6,55.4,77,29.62,10.0,SW,12.7,-,N/A,,Overcast,220,2013-05-21 16:56:00
12:15 PM,62.6,53.6,72,29.61,10.0,SW,13.8,-,N/A,,Overcast,220,2013-05-21 17:15:00
12:36 PM,62.6,51.8,68,29.62,10.0,SSW,16.1,-,N/A,,Overcast,210,2013-05-21 17:36:00
12:55 PM,62.6,51.8,68,29.62,10.0,SSW,13.8,17.3,N/A,,Overcast,210,2013-05-21 17:55:00
1:15 PM,62.6,51.8,68,29.63,10.0,SSW,11.5,-,N/A,,Overcast,210,2013-05-21 18:15:00
1:36 PM,64.4,51.8,64,29.63,10.0,SSW,9.2,-,N/A,,Overcast,210,2013-05-21 18:36:00
1:55 PM,62.6,51.8,68,29.64,10.0,SSW,16.1,-,N/A,,Overcast,210,2013-05-21 18:55:00
2:16 PM,62.6,51.8,68,29.64,10.0,SSW,12.7,-,N/A,,Overcast,210,2013-05-21 19:16:00
2:35 PM,62.6,51.8,68,29.64,10.0,SSW,11.5,-,N/A,,Overcast,200,2013-05-21 19:35:00
2:55 PM,62.6,51.8,68,29.64,10.0,SSW,12.7,18.4,N/A,,Overcast,210,2013-05-21 19:55:00
3:16 PM,62.6,51.8,68,29.65,10.0,SSW,11.5,-,N/A,,Overcast,210,2013-05-21 20:16:00
3:36 PM,62.6,51.8,68,29.65,10.0,SSW,15.0,19.6,N/A,,Overcast,210,2013-05-21 20:36:00
3:55 PM,62.6,51.8,68,29.66,10.0,SW,11.5,16.1,N/A,,Overcast,220,2013-05-21 20:55:00
4:16 PM,62.6,51.8,68,29.65,10.0,SW,9.2,-,N/A,,Overcast,220,2013-05-21 21:16:00
4:36 PM,62.6,51.8,68,29.65,10.0,SSW,10.4,-,N/A,,Overcast,210,2013-05-21 21:36:00
4:55 PM,62.6,51.8,68,29.66,10.0,SW,10.4,-,N/A,,Overcast,220,2013-05-21 21:55:00
5:16 PM,62.6,50.0,63,29.65,10.0,SW,8.1,-,N/A,,Overcast,230,2013-05-21 22:16:00
5:35 PM,62.6,50.0,63,29.66,10.0,SW,5.8,-,N/A,,Overcast,220,2013-05-21 22:35:00
5:55 PM,62.6,51.8,68,29.65,10.0,SW,5.8,-,N/A,,Overcast,220,2013-05-21 22:55:00
6:16 PM,62.6,50.0,63,29.65,10.0,SW,4.6,-,N/A,,Overcast,230,2013-05-21 23:16:00
6:35 PM,62.6,50.0,63,29.65,10.0,WSW,4.6,-,N/A,,Overcast,240,2013-05-21 23:35:00
6:55 PM,62.6,51.8,68,29.65,10.0,SW,3.5,-,N/A,,Overcast,220,2013-05-21 23:55:00
7:16 PM,60.8,51.8,72,29.66,10.0,Calm,Calm,-,N/A,,Overcast,0,2013-05-22 00:16:00
7:35 PM,60.8,50.0,68,29.67,10.0,WSW,3.5,-,N/A,,Overcast,250,2013-05-22 00:35:00
7:56 PM,60.8,50.0,68,29.67,10.0,Calm,Calm,-,N/A,,Overcast,0,2013-05-22 00:56:00
8:15 PM,60.8,51.8,72,29.67,10.0,Calm,Calm,-,N/A,,Overcast,0,2013-05-22 01:15:00
8:36 PM,60.8,51.8,72,29.67,10.0,Calm,Calm,-,N/A,,Overcast,0,2013-05-22 01:36:00
8:55 PM,60.8,51.8,72,29.67,10.0,Calm,Calm,-,N/A,,Overcast,0,2013-05-22 01:55:00
9:15 PM,60.8,53.6,77,29.67,10.0,Calm,Calm,-,N/A,,Overcast,0,2013-05-22 02:15:00
9:36 PM,59.0,53.6,82,29.68,10.0,Calm,Calm,-,N/A,,Overcast,0,2013-05-22 02:36:00
9:55 PM,59.0,53.6,82,29.68,10.0,Calm,Calm,-,N/A,,Overcast,0,2013-05-22 02:55:00
10:15 PM,59.0,53.6,82,29.67,10.0,NE,3.5,-,N/A,,Overcast,40,2013-05-22 03:15:00
10:36 PM,59.0,51.8,77,29.67,10.0,NE,3.5,-,N/A,,Overcast,50,2013-05-22 03:36:00
10:55 PM,59.0,51.8,77,29.67,10.0,Calm,Calm,-,N/A,,Overcast,0,2013-05-22 03:55:00
11:15 PM,59.0,53.6,82,29.67,10.0,Calm,Calm,-,N/A,,Overcast,0,2013-05-22 04:15:00
11:36 PM,59.0,53.6,82,29.67,10.0,Calm,Calm,-,N/A,,Overcast,0,2013-05-22 04:36:00
11:55 PM,59.0,53.6,82,29.67,10.0,Calm,Calm,-,N/A,,Overcast,0,2013-05-22 04:55:00